sensor_id;sensor_type;location;lat;lon;timestamp;P1;durP1;ratioP1;P2;durP2;ratioP2
43994;SDS011;51687;52.160;5.298;2024-03-06T00:00:12;27.30;;;24.90;;
43994;SDS011;51687;52.160;5.298;2024-03-06T00:02:39;28.17;;;25.88;;
43994;SDS011;51687;52.160;5.298;2024-03-06T00:05:06;28.52;;;25.25;;
43994;SDS011;51687;52.160;5.298;2024-03-06T00:07:34;27.45;;;24.67;;
43994;SDS011;51687;52.160;5.298;2024-03-06T00:10:01;26.40;;;24.35;;
43994;SDS011;51687;52.160;5.298;2024-03-06T00:12:31;26.35;;;24.05;;
43994;SDS011;51687;52.160;5.298;2024-03-06T00:14:58;27.60;;;24.92;;
43994;SDS011;51687;52.160;5.298;2024-03-06T00:17:25;27.45;;;25.02;;
43994;SDS011;51687;52.160;5.298;2024-03-06T00:19:53;29.63;;;26.65;;
43994;SDS011;51687;52.160;5.298;2024-03-06T00:22:20;26.33;;;23.95;;
43994;SDS011;51687;52.160;5.298;2024-03-06T00:24:49;26.90;;;24.75;;
43994;SDS011;51687;52.160;5.298;2024-03-06T00:27:17;27.40;;;25.00;;
43994;SDS011;51687;52.160;5.298;2024-03-06T00:29:44;27.15;;;24.77;;
43994;SDS011;51687;52.160;5.298;2024-03-06T00:32:13;26.17;;;24.00;;
43994;SDS011;51687;52.160;5.298;2024-03-06T00:34:41;26.23;;;23.73;;
43994;SDS011;51687;52.160;5.298;2024-03-06T00:37:08;25.92;;;23.95;;
43994;SDS011;51687;52.160;5.298;2024-03-06T00:39:35;28.20;;;25.35;;
43994;SDS011;51687;52.160;5.298;2024-03-06T00:42:02;26.75;;;24.35;;
43994;SDS011;51687;52.160;5.298;2024-03-06T00:44:29;29.85;;;26.90;;
43994;SDS011;51687;52.160;5.298;2024-03-06T00:46:57;27.33;;;25.02;;
43994;SDS011;51687;52.160;5.298;2024-03-06T00:49:25;28.00;;;25.60;;
43994;SDS011;51687;52.160;5.298;2024-03-06T00:51:52;27.63;;;25.37;;
43994;SDS011;51687;52.160;5.298;2024-03-06T00:54:19;29.13;;;25.88;;
43994;SDS011;51687;52.160;5.298;2024-03-06T00:56:45;29.33;;;26.60;;
43994;SDS011;51687;52.160;5.298;2024-03-06T00:59:12;27.92;;;25.35;;
43994;SDS011;51687;52.160;5.298;2024-03-06T01:01:39;26.63;;;24.42;;
43994;SDS011;51687;52.160;5.298;2024-03-06T01:04:07;26.67;;;24.47;;
43994;SDS011;51687;52.160;5.298;2024-03-06T01:06:34;24.92;;;22.67;;
43994;SDS011;51687;52.160;5.298;2024-03-06T01:09:01;26.67;;;24.35;;
43994;SDS011;51687;52.160;5.298;2024-03-06T01:11:27;27.15;;;24.80;;
43994;SDS011;51687;52.160;5.298;2024-03-06T01:13:54;27.65;;;25.13;;
43994;SDS011;51687;52.160;5.298;2024-03-06T01:16:21;26.92;;;24.42;;
43994;SDS011;51687;52.160;5.298;2024-03-06T01:18:48;27.98;;;25.38;;
43994;SDS011;51687;52.160;5.298;2024-03-06T01:21:15;27.08;;;24.88;;
43994;SDS011;51687;52.160;5.298;2024-03-06T01:23:42;26.83;;;24.42;;
43994;SDS011;51687;52.160;5.298;2024-03-06T01:26:09;26.30;;;24.00;;
43994;SDS011;51687;52.160;5.298;2024-03-06T01:28:36;24.80;;;22.70;;
43994;SDS011;51687;52.160;5.298;2024-03-06T01:31:03;26.02;;;23.75;;
43994;SDS011;51687;52.160;5.298;2024-03-06T01:33:30;24.60;;;22.65;;
43994;SDS011;51687;52.160;5.298;2024-03-06T01:35:57;26.05;;;23.52;;
43994;SDS011;51687;52.160;5.298;2024-03-06T01:38:24;24.38;;;22.52;;
43994;SDS011;51687;52.160;5.298;2024-03-06T01:40:50;28.08;;;25.50;;
43994;SDS011;51687;52.160;5.298;2024-03-06T01:43:22;26.75;;;24.35;;
43994;SDS011;51687;52.160;5.298;2024-03-06T01:45:50;27.58;;;24.88;;
43994;SDS011;51687;52.160;5.298;2024-03-06T01:48:23;27.10;;;24.67;;
43994;SDS011;51687;52.160;5.298;2024-03-06T01:50:54;27.52;;;25.10;;
43994;SDS011;51687;52.160;5.298;2024-03-06T01:53:25;27.10;;;24.75;;
43994;SDS011;51687;52.160;5.298;2024-03-06T01:55:56;30.52;;;27.98;;
43994;SDS011;51687;52.160;5.298;2024-03-06T01:58:23;30.08;;;27.48;;
43994;SDS011;51687;52.160;5.298;2024-03-06T02:00:50;30.47;;;27.63;;
43994;SDS011;51687;52.160;5.298;2024-03-06T02:03:18;29.30;;;26.70;;
43994;SDS011;51687;52.160;5.298;2024-03-06T02:05:48;31.13;;;28.52;;
43994;SDS011;51687;52.160;5.298;2024-03-06T02:08:16;30.60;;;27.65;;
43994;SDS011;51687;52.160;5.298;2024-03-06T02:10:44;32.38;;;29.20;;
43994;SDS011;51687;52.160;5.298;2024-03-06T02:13:13;31.08;;;28.17;;
43994;SDS011;51687;52.160;5.298;2024-03-06T02:15:40;29.75;;;27.17;;
43994;SDS011;51687;52.160;5.298;2024-03-06T02:18:07;30.30;;;27.52;;
43994;SDS011;51687;52.160;5.298;2024-03-06T02:23:03;31.75;;;28.63;;
43994;SDS011;51687;52.160;5.298;2024-03-06T02:25:30;31.20;;;28.25;;
43994;SDS011;51687;52.160;5.298;2024-03-06T02:27:57;30.83;;;27.88;;
43994;SDS011;51687;52.160;5.298;2024-03-06T02:30:25;31.80;;;27.88;;
43994;SDS011;51687;52.160;5.298;2024-03-06T02:32:51;31.40;;;28.52;;
43994;SDS011;51687;52.160;5.298;2024-03-06T02:35:18;31.92;;;28.77;;
43994;SDS011;51687;52.160;5.298;2024-03-06T02:37:46;32.72;;;29.70;;
43994;SDS011;51687;52.160;5.298;2024-03-06T02:40:13;31.50;;;28.25;;
43994;SDS011;51687;52.160;5.298;2024-03-06T02:42:40;30.58;;;27.95;;
43994;SDS011;51687;52.160;5.298;2024-03-06T02:45:08;30.43;;;28.00;;
43994;SDS011;51687;52.160;5.298;2024-03-06T02:47:35;29.50;;;27.13;;
43994;SDS011;51687;52.160;5.298;2024-03-06T02:50:02;29.73;;;27.08;;
43994;SDS011;51687;52.160;5.298;2024-03-06T02:54:58;29.58;;;26.75;;
43994;SDS011;51687;52.160;5.298;2024-03-06T02:57:26;27.53;;;25.17;;
43994;SDS011;51687;52.160;5.298;2024-03-06T02:59:57;30.30;;;27.30;;
43994;SDS011;51687;52.160;5.298;2024-03-06T03:02:24;29.85;;;27.20;;
43994;SDS011;51687;52.160;5.298;2024-03-06T03:04:51;30.50;;;27.67;;
43994;SDS011;51687;52.160;5.298;2024-03-06T03:07:19;30.20;;;27.50;;
43994;SDS011;51687;52.160;5.298;2024-03-06T03:09:47;29.75;;;27.05;;
43994;SDS011;51687;52.160;5.298;2024-03-06T03:12:14;29.80;;;27.20;;
43994;SDS011;51687;52.160;5.298;2024-03-06T03:14:41;29.45;;;26.85;;
43994;SDS011;51687;52.160;5.298;2024-03-06T03:17:10;30.87;;;28.17;;
43994;SDS011;51687;52.160;5.298;2024-03-06T03:19:39;29.52;;;26.83;;
43994;SDS011;51687;52.160;5.298;2024-03-06T03:22:06;32.63;;;29.27;;
43994;SDS011;51687;52.160;5.298;2024-03-06T03:24:35;29.88;;;27.15;;
43994;SDS011;51687;52.160;5.298;2024-03-06T03:27:03;30.93;;;28.10;;
43994;SDS011;51687;52.160;5.298;2024-03-06T03:29:30;31.10;;;27.95;;
43994;SDS011;51687;52.160;5.298;2024-03-06T03:31:57;30.70;;;27.90;;
43994;SDS011;51687;52.160;5.298;2024-03-06T03:34:23;28.63;;;26.30;;
43994;SDS011;51687;52.160;5.298;2024-03-06T03:36:50;30.25;;;27.30;;
43994;SDS011;51687;52.160;5.298;2024-03-06T03:39:17;30.02;;;27.45;;
43994;SDS011;51687;52.160;5.298;2024-03-06T03:41:47;31.30;;;28.58;;
43994;SDS011;51687;52.160;5.298;2024-03-06T03:44:14;31.47;;;28.53;;
43994;SDS011;51687;52.160;5.298;2024-03-06T03:46:42;31.45;;;28.33;;
43994;SDS011;51687;52.160;5.298;2024-03-06T03:49:09;31.27;;;28.23;;
43994;SDS011;51687;52.160;5.298;2024-03-06T03:51:38;31.20;;;28.27;;
43994;SDS011;51687;52.160;5.298;2024-03-06T03:54:05;30.65;;;27.98;;
43994;SDS011;51687;52.160;5.298;2024-03-06T03:56:32;29.83;;;27.20;;
43994;SDS011;51687;52.160;5.298;2024-03-06T03:59:00;31.80;;;28.90;;
43994;SDS011;51687;52.160;5.298;2024-03-06T04:01:27;31.90;;;29.10;;
43994;SDS011;51687;52.160;5.298;2024-03-06T04:03:54;30.35;;;27.85;;
43994;SDS011;51687;52.160;5.298;2024-03-06T04:06:21;30.90;;;27.85;;
43994;SDS011;51687;52.160;5.298;2024-03-06T04:08:48;30.13;;;27.63;;
43994;SDS011;51687;52.160;5.298;2024-03-06T04:11:15;32.10;;;29.02;;
43994;SDS011;51687;52.160;5.298;2024-03-06T04:13:42;32.20;;;29.27;;
43994;SDS011;51687;52.160;5.298;2024-03-06T04:16:09;32.38;;;29.40;;
43994;SDS011;51687;52.160;5.298;2024-03-06T04:18:37;31.13;;;28.42;;
43994;SDS011;51687;52.160;5.298;2024-03-06T04:21:05;33.47;;;30.40;;
43994;SDS011;51687;52.160;5.298;2024-03-06T04:23:32;29.98;;;27.58;;
43994;SDS011;51687;52.160;5.298;2024-03-06T04:26:00;32.65;;;29.55;;
43994;SDS011;51687;52.160;5.298;2024-03-06T04:28:27;31.05;;;28.15;;
43994;SDS011;51687;52.160;5.298;2024-03-06T04:30:54;31.20;;;28.35;;
43994;SDS011;51687;52.160;5.298;2024-03-06T04:33:21;32.33;;;29.33;;
43994;SDS011;51687;52.160;5.298;2024-03-06T04:35:48;32.17;;;28.73;;
43994;SDS011;51687;52.160;5.298;2024-03-06T04:38:15;32.78;;;29.80;;
43994;SDS011;51687;52.160;5.298;2024-03-06T04:40:42;34.80;;;31.38;;
43994;SDS011;51687;52.160;5.298;2024-03-06T04:43:09;34.20;;;30.90;;
43994;SDS011;51687;52.160;5.298;2024-03-06T04:45:37;32.22;;;29.10;;
43994;SDS011;51687;52.160;5.298;2024-03-06T04:48:03;31.80;;;28.83;;
43994;SDS011;51687;52.160;5.298;2024-03-06T04:50:31;32.88;;;29.67;;
43994;SDS011;51687;52.160;5.298;2024-03-06T04:52:58;33.58;;;30.13;;
43994;SDS011;51687;52.160;5.298;2024-03-06T04:55:24;33.15;;;30.15;;
43994;SDS011;51687;52.160;5.298;2024-03-06T04:57:53;33.65;;;30.40;;
43994;SDS011;51687;52.160;5.298;2024-03-06T05:02:47;33.22;;;30.13;;
43994;SDS011;51687;52.160;5.298;2024-03-06T05:05:32;33.17;;;30.00;;
43994;SDS011;51687;52.160;5.298;2024-03-06T05:08:17;32.63;;;29.52;;
43994;SDS011;51687;52.160;5.298;2024-03-06T05:11:01;31.27;;;28.67;;
43994;SDS011;51687;52.160;5.298;2024-03-06T05:13:46;31.35;;;28.65;;
43994;SDS011;51687;52.160;5.298;2024-03-06T05:16:30;32.95;;;29.63;;
43994;SDS011;51687;52.160;5.298;2024-03-06T05:19:15;31.67;;;28.85;;
43994;SDS011;51687;52.160;5.298;2024-03-06T05:21:59;30.20;;;27.70;;
43994;SDS011;51687;52.160;5.298;2024-03-06T05:24:43;32.22;;;29.23;;
43994;SDS011;51687;52.160;5.298;2024-03-06T05:27:28;34.17;;;30.90;;
43994;SDS011;51687;52.160;5.298;2024-03-06T05:30:12;33.03;;;29.88;;
43994;SDS011;51687;52.160;5.298;2024-03-06T05:32:58;34.15;;;30.63;;
43994;SDS011;51687;52.160;5.298;2024-03-06T05:35:42;30.95;;;27.80;;
43994;SDS011;51687;52.160;5.298;2024-03-06T05:38:27;32.15;;;29.30;;
43994;SDS011;51687;52.160;5.298;2024-03-06T05:41:11;33.40;;;30.20;;
43994;SDS011;51687;52.160;5.298;2024-03-06T05:43:56;32.60;;;29.73;;
43994;SDS011;51687;52.160;5.298;2024-03-06T05:46:40;32.90;;;29.88;;
43994;SDS011;51687;52.160;5.298;2024-03-06T05:49:24;32.17;;;29.23;;
43994;SDS011;51687;52.160;5.298;2024-03-06T05:52:09;31.08;;;28.35;;
43994;SDS011;51687;52.160;5.298;2024-03-06T05:54:53;30.70;;;28.00;;
43994;SDS011;51687;52.160;5.298;2024-03-06T05:57:37;30.48;;;28.05;;
43994;SDS011;51687;52.160;5.298;2024-03-06T06:00:21;30.35;;;27.85;;
43994;SDS011;51687;52.160;5.298;2024-03-06T06:02:48;30.33;;;27.60;;
43994;SDS011;51687;52.160;5.298;2024-03-06T06:05:15;31.05;;;28.25;;
43994;SDS011;51687;52.160;5.298;2024-03-06T06:07:49;31.83;;;28.52;;
43994;SDS011;51687;52.160;5.298;2024-03-06T06:10:17;30.95;;;28.00;;
43994;SDS011;51687;52.160;5.298;2024-03-06T06:12:47;31.60;;;28.75;;
43994;SDS011;51687;52.160;5.298;2024-03-06T06:15:19;33.30;;;30.10;;
43994;SDS011;51687;52.160;5.298;2024-03-06T06:17:46;32.42;;;29.58;;
43994;SDS011;51687;52.160;5.298;2024-03-06T06:20:13;37.30;;;30.30;;
43994;SDS011;51687;52.160;5.298;2024-03-06T06:22:42;33.17;;;30.15;;
43994;SDS011;51687;52.160;5.298;2024-03-06T06:25:09;37.78;;;29.48;;
43994;SDS011;51687;52.160;5.298;2024-03-06T06:27:38;34.58;;;30.35;;
43994;SDS011;51687;52.160;5.298;2024-03-06T06:30:05;40.60;;;30.92;;
43994;SDS011;51687;52.160;5.298;2024-03-06T06:32:39;34.08;;;30.38;;
43994;SDS011;51687;52.160;5.298;2024-03-06T06:35:08;35.08;;;29.25;;
43994;SDS011;51687;52.160;5.298;2024-03-06T06:37:36;32.25;;;29.23;;
43994;SDS011;51687;52.160;5.298;2024-03-06T06:40:04;34.33;;;30.58;;
43994;SDS011;51687;52.160;5.298;2024-03-06T06:42:35;33.35;;;30.13;;
43994;SDS011;51687;52.160;5.298;2024-03-06T06:45:04;36.65;;;31.75;;
43994;SDS011;51687;52.160;5.298;2024-03-06T06:47:36;33.50;;;30.05;;
43994;SDS011;51687;52.160;5.298;2024-03-06T06:50:03;37.20;;;32.08;;
43994;SDS011;51687;52.160;5.298;2024-03-06T06:52:35;34.65;;;30.95;;
43994;SDS011;51687;52.160;5.298;2024-03-06T06:55:02;38.60;;;30.48;;
43994;SDS011;51687;52.160;5.298;2024-03-06T06:57:30;37.10;;;30.13;;
43994;SDS011;51687;52.160;5.298;2024-03-06T06:59:57;39.55;;;31.10;;
43994;SDS011;51687;52.160;5.298;2024-03-06T07:02:24;34.65;;;31.13;;
43994;SDS011;51687;52.160;5.298;2024-03-06T07:04:51;33.65;;;30.17;;
43994;SDS011;51687;52.160;5.298;2024-03-06T07:07:18;50.60;;;30.25;;
43994;SDS011;51687;52.160;5.298;2024-03-06T07:09:45;51.55;;;29.20;;
43994;SDS011;51687;52.160;5.298;2024-03-06T07:12:12;50.95;;;29.80;;
43994;SDS011;51687;52.160;5.298;2024-03-06T07:14:38;70.32;;;28.52;;
43994;SDS011;51687;52.160;5.298;2024-03-06T07:17:05;84.60;;;27.15;;
43994;SDS011;51687;52.160;5.298;2024-03-06T07:19:32;40.08;;;27.90;;
43994;SDS011;51687;52.160;5.298;2024-03-06T07:21:59;58.55;;;26.67;;
43994;SDS011;51687;52.160;5.298;2024-03-06T07:24:26;56.08;;;25.83;;
43994;SDS011;51687;52.160;5.298;2024-03-06T07:26:53;47.83;;;25.38;;
43994;SDS011;51687;52.160;5.298;2024-03-06T07:29:20;38.35;;;26.08;;
43994;SDS011;51687;52.160;5.298;2024-03-06T07:31:48;77.70;;;26.85;;
43994;SDS011;51687;52.160;5.298;2024-03-06T07:34:14;52.33;;;26.40;;
43994;SDS011;51687;52.160;5.298;2024-03-06T07:36:41;40.55;;;25.95;;
43994;SDS011;51687;52.160;5.298;2024-03-06T07:39:08;62.95;;;26.42;;
43994;SDS011;51687;52.160;5.298;2024-03-06T07:41:35;61.63;;;26.92;;
43994;SDS011;51687;52.160;5.298;2024-03-06T07:44:02;29.40;;;26.33;;
43994;SDS011;51687;52.160;5.298;2024-03-06T07:46:29;37.65;;;29.25;;
43994;SDS011;51687;52.160;5.298;2024-03-06T07:48:56;33.47;;;30.00;;
43994;SDS011;51687;52.160;5.298;2024-03-06T07:51:23;54.75;;;32.38;;
43994;SDS011;51687;52.160;5.298;2024-03-06T07:53:50;43.97;;;33.03;;
43994;SDS011;51687;52.160;5.298;2024-03-06T07:56:17;42.28;;;34.20;;
43994;SDS011;51687;52.160;5.298;2024-03-06T07:58:44;45.67;;;36.33;;
43994;SDS011;51687;52.160;5.298;2024-03-06T08:01:11;44.75;;;36.53;;
43994;SDS011;51687;52.160;5.298;2024-03-06T08:03:39;41.58;;;37.17;;
43994;SDS011;51687;52.160;5.298;2024-03-06T08:06:07;42.83;;;35.88;;
43994;SDS011;51687;52.160;5.298;2024-03-06T08:08:34;42.80;;;38.38;;
43994;SDS011;51687;52.160;5.298;2024-03-06T08:11:01;40.03;;;35.67;;
43994;SDS011;51687;52.160;5.298;2024-03-06T08:13:29;42.60;;;38.03;;
43994;SDS011;51687;52.160;5.298;2024-03-06T08:15:56;44.13;;;38.95;;
43994;SDS011;51687;52.160;5.298;2024-03-06T08:18:22;43.60;;;38.90;;
43994;SDS011;51687;52.160;5.298;2024-03-06T08:20:49;44.53;;;37.40;;
43994;SDS011;51687;52.160;5.298;2024-03-06T08:23:16;45.38;;;40.58;;
43994;SDS011;51687;52.160;5.298;2024-03-06T08:25:43;44.83;;;39.78;;
43994;SDS011;51687;52.160;5.298;2024-03-06T08:28:10;45.45;;;40.63;;
43994;SDS011;51687;52.160;5.298;2024-03-06T08:30:37;46.08;;;41.25;;
43994;SDS011;51687;52.160;5.298;2024-03-06T08:33:04;49.30;;;42.22;;
43994;SDS011;51687;52.160;5.298;2024-03-06T08:35:31;46.13;;;41.00;;
43994;SDS011;51687;52.160;5.298;2024-03-06T08:37:59;47.83;;;41.17;;
43994;SDS011;51687;52.160;5.298;2024-03-06T08:40:26;49.05;;;41.88;;
43994;SDS011;51687;52.160;5.298;2024-03-06T08:42:54;45.92;;;40.95;;
43994;SDS011;51687;52.160;5.298;2024-03-06T08:45:22;47.38;;;41.05;;
43994;SDS011;51687;52.160;5.298;2024-03-06T08:47:49;45.42;;;40.55;;
43994;SDS011;51687;52.160;5.298;2024-03-06T08:50:16;45.85;;;39.53;;
43994;SDS011;51687;52.160;5.298;2024-03-06T08:52:44;48.65;;;38.92;;
43994;SDS011;51687;52.160;5.298;2024-03-06T08:55:12;44.17;;;39.70;;
43994;SDS011;51687;52.160;5.298;2024-03-06T08:57:39;44.08;;;39.33;;
43994;SDS011;51687;52.160;5.298;2024-03-06T09:00:07;44.65;;;40.05;;
43994;SDS011;51687;52.160;5.298;2024-03-06T09:02:38;45.97;;;40.60;;
43994;SDS011;51687;52.160;5.298;2024-03-06T09:05:09;44.72;;;39.72;;
43994;SDS011;51687;52.160;5.298;2024-03-06T09:07:37;47.03;;;42.15;;
43994;SDS011;51687;52.160;5.298;2024-03-06T09:10:07;44.72;;;40.08;;
43994;SDS011;51687;52.160;5.298;2024-03-06T09:12:36;45.90;;;41.13;;
43994;SDS011;51687;52.160;5.298;2024-03-06T09:15:03;52.85;;;41.53;;
43994;SDS011;51687;52.160;5.298;2024-03-06T09:17:30;48.38;;;42.25;;
43994;SDS011;51687;52.160;5.298;2024-03-06T09:19:58;48.75;;;42.78;;
43994;SDS011;51687;52.160;5.298;2024-03-06T09:22:38;51.17;;;44.95;;
43994;SDS011;51687;52.160;5.298;2024-03-06T09:25:06;49.25;;;43.13;;
43994;SDS011;51687;52.160;5.298;2024-03-06T09:27:33;50.10;;;44.60;;
43994;SDS011;51687;52.160;5.298;2024-03-06T09:30:00;53.13;;;44.15;;
43994;SDS011;51687;52.160;5.298;2024-03-06T09:32:29;49.55;;;43.88;;
43994;SDS011;51687;52.160;5.298;2024-03-06T09:34:58;54.75;;;46.83;;
43994;SDS011;51687;52.160;5.298;2024-03-06T09:37:25;49.65;;;43.47;;
43994;SDS011;51687;52.160;5.298;2024-03-06T09:39:51;53.65;;;45.67;;
43994;SDS011;51687;52.160;5.298;2024-03-06T09:42:18;49.35;;;43.85;;
43994;SDS011;51687;52.160;5.298;2024-03-06T09:44:45;48.95;;;43.53;;
43994;SDS011;51687;52.160;5.298;2024-03-06T09:47:14;49.55;;;44.15;;
43994;SDS011;51687;52.160;5.298;2024-03-06T09:49:50;51.55;;;44.50;;
43994;SDS011;51687;52.160;5.298;2024-03-06T09:52:21;48.78;;;43.63;;
43994;SDS011;51687;52.160;5.298;2024-03-06T09:54:51;46.72;;;41.85;;
43994;SDS011;51687;52.160;5.298;2024-03-06T09:57:22;48.47;;;43.30;;
43994;SDS011;51687;52.160;5.298;2024-03-06T09:59:49;47.42;;;42.00;;
43994;SDS011;51687;52.160;5.298;2024-03-06T10:04:52;46.72;;;41.80;;
43994;SDS011;51687;52.160;5.298;2024-03-06T10:07:19;47.65;;;42.38;;
43994;SDS011;51687;52.160;5.298;2024-03-06T10:09:47;45.72;;;40.78;;
43994;SDS011;51687;52.160;5.298;2024-03-06T10:12:16;48.47;;;43.30;;
43994;SDS011;51687;52.160;5.298;2024-03-06T10:14:49;48.38;;;41.92;;
43994;SDS011;51687;52.160;5.298;2024-03-06T10:17:21;47.60;;;42.42;;
43994;SDS011;51687;52.160;5.298;2024-03-06T10:19:49;47.45;;;42.40;;
43994;SDS011;51687;52.160;5.298;2024-03-06T10:22:19;46.70;;;41.95;;
43994;SDS011;51687;52.160;5.298;2024-03-06T10:24:47;49.27;;;43.97;;
43994;SDS011;51687;52.160;5.298;2024-03-06T10:27:14;46.47;;;41.72;;
43994;SDS011;51687;52.160;5.298;2024-03-06T10:29:44;43.42;;;39.03;;
43994;SDS011;51687;52.160;5.298;2024-03-06T10:32:15;46.53;;;41.65;;
43994;SDS011;51687;52.160;5.298;2024-03-06T10:34:45;48.78;;;42.42;;
43994;SDS011;51687;52.160;5.298;2024-03-06T10:37:12;46.95;;;42.25;;
43994;SDS011;51687;52.160;5.298;2024-03-06T10:39:41;44.20;;;39.95;;
43994;SDS011;51687;52.160;5.298;2024-03-06T10:42:12;46.60;;;41.45;;
43994;SDS011;51687;52.160;5.298;2024-03-06T10:44:41;43.63;;;39.03;;
43994;SDS011;51687;52.160;5.298;2024-03-06T10:47:22;42.90;;;38.63;;
43994;SDS011;51687;52.160;5.298;2024-03-06T10:49:53;43.53;;;38.80;;
43994;SDS011;51687;52.160;5.298;2024-03-06T10:52:20;40.15;;;36.25;;
43994;SDS011;51687;52.160;5.298;2024-03-06T10:54:48;40.17;;;36.10;;
43994;SDS011;51687;52.160;5.298;2024-03-06T10:57:15;38.03;;;34.50;;
43994;SDS011;51687;52.160;5.298;2024-03-06T10:59:43;39.67;;;35.85;;
43994;SDS011;51687;52.160;5.298;2024-03-06T11:02:11;33.00;;;29.88;;
43994;SDS011;51687;52.160;5.298;2024-03-06T11:04:39;27.50;;;25.10;;
43994;SDS011;51687;52.160;5.298;2024-03-06T11:07:07;27.40;;;25.02;;
43994;SDS011;51687;52.160;5.298;2024-03-06T11:09:40;28.20;;;25.58;;
43994;SDS011;51687;52.160;5.298;2024-03-06T11:12:08;28.85;;;26.10;;
43994;SDS011;51687;52.160;5.298;2024-03-06T11:14:38;27.58;;;25.48;;
43994;SDS011;51687;52.160;5.298;2024-03-06T11:17:09;25.90;;;23.95;;
43994;SDS011;51687;52.160;5.298;2024-03-06T11:28:20;23.48;;;21.48;;
43994;SDS011;51687;52.160;5.298;2024-03-06T11:33:38;21.92;;;20.33;;
43994;SDS011;51687;52.160;5.298;2024-03-06T11:36:25;20.92;;;19.27;;
43994;SDS011;51687;52.160;5.298;2024-03-06T11:39:05;21.27;;;19.35;;
43994;SDS011;51687;52.160;5.298;2024-03-06T11:44:15;16.70;;;15.40;;
43994;SDS011;51687;52.160;5.298;2024-03-06T11:46:45;14.55;;;13.48;;
43994;SDS011;51687;52.160;5.298;2024-03-06T11:51:41;15.80;;;14.57;;
43994;SDS011;51687;52.160;5.298;2024-03-06T11:54:08;19.10;;;17.60;;
43994;SDS011;51687;52.160;5.298;2024-03-06T11:59:09;18.83;;;17.27;;
43994;SDS011;51687;52.160;5.298;2024-03-06T12:01:37;17.70;;;16.30;;
43994;SDS011;51687;52.160;5.298;2024-03-06T12:04:04;16.73;;;15.20;;
43994;SDS011;51687;52.160;5.298;2024-03-06T12:06:32;16.20;;;14.82;;
43994;SDS011;51687;52.160;5.298;2024-03-06T12:09:00;15.70;;;14.60;;
43994;SDS011;51687;52.160;5.298;2024-03-06T12:11:27;16.50;;;15.02;;
43994;SDS011;51687;52.160;5.298;2024-03-06T12:13:55;14.25;;;12.88;;
43994;SDS011;51687;52.160;5.298;2024-03-06T12:16:29;15.00;;;13.60;;
43994;SDS011;51687;52.160;5.298;2024-03-06T12:18:56;16.67;;;15.45;;
43994;SDS011;51687;52.160;5.298;2024-03-06T12:21:33;15.05;;;13.75;;
43994;SDS011;51687;52.160;5.298;2024-03-06T12:24:07;14.23;;;13.10;;
43994;SDS011;51687;52.160;5.298;2024-03-06T12:26:35;15.30;;;14.10;;
43994;SDS011;51687;52.160;5.298;2024-03-06T12:29:03;13.55;;;12.52;;
43994;SDS011;51687;52.160;5.298;2024-03-06T12:34:00;7.60;;;6.82;;
43994;SDS011;51687;52.160;5.298;2024-03-06T12:36:30;10.15;;;9.35;;
43994;SDS011;51687;52.160;5.298;2024-03-06T12:38:59;10.30;;;9.17;;
43994;SDS011;51687;52.160;5.298;2024-03-06T12:41:26;10.45;;;9.48;;
43994;SDS011;51687;52.160;5.298;2024-03-06T12:43:54;10.85;;;9.95;;
43994;SDS011;51687;52.160;5.298;2024-03-06T12:46:22;8.30;;;7.57;;
43994;SDS011;51687;52.160;5.298;2024-03-06T12:48:50;5.05;;;4.57;;
43994;SDS011;51687;52.160;5.298;2024-03-06T12:51:17;7.32;;;6.63;;
43994;SDS011;51687;52.160;5.298;2024-03-06T12:53:44;9.15;;;8.27;;
43994;SDS011;51687;52.160;5.298;2024-03-06T12:56:11;9.82;;;8.63;;
43994;SDS011;51687;52.160;5.298;2024-03-06T12:58:38;10.27;;;9.38;;
43994;SDS011;51687;52.160;5.298;2024-03-06T13:01:05;9.57;;;8.80;;
43994;SDS011;51687;52.160;5.298;2024-03-06T13:03:32;9.52;;;8.73;;
43994;SDS011;51687;52.160;5.298;2024-03-06T13:05:59;8.38;;;7.68;;
43994;SDS011;51687;52.160;5.298;2024-03-06T13:08:26;8.30;;;7.65;;
43994;SDS011;51687;52.160;5.298;2024-03-06T13:10:53;8.43;;;7.72;;
43994;SDS011;51687;52.160;5.298;2024-03-06T13:13:20;7.85;;;7.15;;
43994;SDS011;51687;52.160;5.298;2024-03-06T13:15:47;8.20;;;7.47;;
43994;SDS011;51687;52.160;5.298;2024-03-06T13:18:15;8.60;;;7.80;;
43994;SDS011;51687;52.160;5.298;2024-03-06T13:20:42;8.80;;;8.15;;
43994;SDS011;51687;52.160;5.298;2024-03-06T13:23:11;8.75;;;8.05;;
43994;SDS011;51687;52.160;5.298;2024-03-06T13:25:38;8.35;;;7.75;;
43994;SDS011;51687;52.160;5.298;2024-03-06T13:28:05;7.55;;;6.97;;
43994;SDS011;51687;52.160;5.298;2024-03-06T13:30:32;7.65;;;7.03;;
43994;SDS011;51687;52.160;5.298;2024-03-06T13:32:59;8.18;;;7.43;;
43994;SDS011;51687;52.160;5.298;2024-03-06T13:35:26;6.97;;;6.38;;
43994;SDS011;51687;52.160;5.298;2024-03-06T13:37:54;7.28;;;6.65;;
43994;SDS011;51687;52.160;5.298;2024-03-06T13:40:21;7.18;;;5.82;;
43994;SDS011;51687;52.160;5.298;2024-03-06T13:42:48;5.78;;;5.28;;
43994;SDS011;51687;52.160;5.298;2024-03-06T13:45:16;7.35;;;5.40;;
43994;SDS011;51687;52.160;5.298;2024-03-06T13:47:43;5.32;;;4.85;;
43994;SDS011;51687;52.160;5.298;2024-03-06T13:50:12;5.37;;;4.87;;
43994;SDS011;51687;52.160;5.298;2024-03-06T13:55:07;4.70;;;4.25;;
43994;SDS011;51687;52.160;5.298;2024-03-06T13:57:34;5.47;;;4.97;;
43994;SDS011;51687;52.160;5.298;2024-03-06T14:00:03;6.50;;;5.80;;
43994;SDS011;51687;52.160;5.298;2024-03-06T14:02:48;6.55;;;5.50;;
43994;SDS011;51687;52.160;5.298;2024-03-06T14:05:15;5.40;;;4.95;;
43994;SDS011;51687;52.160;5.298;2024-03-06T14:07:42;7.20;;;5.50;;
43994;SDS011;51687;52.160;5.298;2024-03-06T14:10:10;9.43;;;7.07;;
43994;SDS011;51687;52.160;5.298;2024-03-06T14:12:38;7.72;;;7.00;;
43994;SDS011;51687;52.160;5.298;2024-03-06T14:15:05;7.85;;;6.70;;
43994;SDS011;51687;52.160;5.298;2024-03-06T14:17:39;7.10;;;6.50;;
43994;SDS011;51687;52.160;5.298;2024-03-06T14:20:06;6.70;;;6.18;;
43994;SDS011;51687;52.160;5.298;2024-03-06T14:22:34;7.18;;;6.65;;
43994;SDS011;51687;52.160;5.298;2024-03-06T14:25:02;6.97;;;6.53;;
43994;SDS011;51687;52.160;5.298;2024-03-06T14:27:29;7.90;;;7.13;;
43994;SDS011;51687;52.160;5.298;2024-03-06T14:29:55;7.90;;;7.13;;
43994;SDS011;51687;52.160;5.298;2024-03-06T14:32:22;7.43;;;6.50;;
43994;SDS011;51687;52.160;5.298;2024-03-06T14:34:49;6.55;;;6.03;;
43994;SDS011;51687;52.160;5.298;2024-03-06T14:37:17;6.97;;;6.28;;
43994;SDS011;51687;52.160;5.298;2024-03-06T14:39:43;7.43;;;6.72;;
43994;SDS011;51687;52.160;5.298;2024-03-06T14:42:11;7.00;;;6.38;;
43994;SDS011;51687;52.160;5.298;2024-03-06T14:44:38;8.07;;;6.40;;
43994;SDS011;51687;52.160;5.298;2024-03-06T14:47:05;8.27;;;7.47;;
43994;SDS011;51687;52.160;5.298;2024-03-06T14:49:32;7.60;;;6.90;;
43994;SDS011;51687;52.160;5.298;2024-03-06T14:51:59;7.38;;;6.68;;
43994;SDS011;51687;52.160;5.298;2024-03-06T14:54:26;7.90;;;6.95;;
43994;SDS011;51687;52.160;5.298;2024-03-06T14:56:53;7.43;;;6.75;;
43994;SDS011;51687;52.160;5.298;2024-03-06T14:59:21;8.32;;;7.53;;
43994;SDS011;51687;52.160;5.298;2024-03-06T15:01:48;8.95;;;8.15;;
43994;SDS011;51687;52.160;5.298;2024-03-06T15:04:16;8.70;;;7.80;;
43994;SDS011;51687;52.160;5.298;2024-03-06T15:06:45;8.93;;;8.02;;
43994;SDS011;51687;52.160;5.298;2024-03-06T15:09:12;9.00;;;8.07;;